sensor_id;sensor_type;location;lat;lon;timestamp;P1;durP1;ratioP1;P2;durP2;ratioP2
81529;SDS011;70974;45.808;15.808;2023-06-26T00:01:27;12.82;;;9.25;;
81529;SDS011;70974;45.808;15.808;2023-06-26T00:03:54;15.07;;;10.02;;
81529;SDS011;70974;45.808;15.808;2023-06-26T00:06:21;15.40;;;10.63;;
81529;SDS011;70974;45.808;15.808;2023-06-26T00:08:49;14.20;;;10.25;;
81529;SDS011;70974;45.808;15.808;2023-06-26T00:11:15;13.75;;;9.75;;
81529;SDS011;70974;45.808;15.808;2023-06-26T00:13:42;14.73;;;10.35;;
81529;SDS011;70974;45.808;15.808;2023-06-26T00:16:08;14.98;;;10.68;;
81529;SDS011;70974;45.808;15.808;2023-06-26T00:18:34;14.95;;;10.35;;
81529;SDS011;70974;45.808;15.808;2023-06-26T00:21:00;12.02;;;9.30;;
81529;SDS011;70974;45.808;15.808;2023-06-26T00:23:26;12.57;;;9.75;;
81529;SDS011;70974;45.808;15.808;2023-06-26T00:26:02;13.77;;;9.65;;
81529;SDS011;70974;45.808;15.808;2023-06-26T00:28:28;13.48;;;8.80;;
81529;SDS011;70974;45.808;15.808;2023-06-26T00:30:54;14.15;;;10.30;;
81529;SDS011;70974;45.808;15.808;2023-06-26T00:33:20;15.30;;;10.02;;
81529;SDS011;70974;45.808;15.808;2023-06-26T00:35:47;12.88;;;9.95;;
81529;SDS011;70974;45.808;15.808;2023-06-26T00:38:13;13.35;;;10.13;;
81529;SDS011;70974;45.808;15.808;2023-06-26T00:40:39;15.48;;;11.00;;
81529;SDS011;70974;45.808;15.808;2023-06-26T00:43:05;14.55;;;10.13;;
81529;SDS011;70974;45.808;15.808;2023-06-26T00:45:31;12.93;;;10.02;;
81529;SDS011;70974;45.808;15.808;2023-06-26T00:47:57;14.02;;;10.00;;
81529;SDS011;70974;45.808;15.808;2023-06-26T00:50:23;15.38;;;10.38;;
81529;SDS011;70974;45.808;15.808;2023-06-26T00:52:49;14.57;;;10.00;;
81529;SDS011;70974;45.808;15.808;2023-06-26T00:55:15;15.55;;;10.10;;
81529;SDS011;70974;45.808;15.808;2023-06-26T00:57:41;16.55;;;10.52;;
81529;SDS011;70974;45.808;15.808;2023-06-26T01:00:10;14.93;;;10.20;;
81529;SDS011;70974;45.808;15.808;2023-06-26T01:02:37;17.08;;;10.30;;
81529;SDS011;70974;45.808;15.808;2023-06-26T01:05:04;14.90;;;10.73;;
81529;SDS011;70974;45.808;15.808;2023-06-26T01:07:31;17.80;;;9.98;;
81529;SDS011;70974;45.808;15.808;2023-06-26T01:10:01;15.90;;;11.07;;
81529;SDS011;70974;45.808;15.808;2023-06-26T01:12:28;15.98;;;11.32;;
81529;SDS011;70974;45.808;15.808;2023-06-26T01:14:54;18.75;;;10.93;;
81529;SDS011;70974;45.808;15.808;2023-06-26T01:17:20;15.65;;;11.70;;
81529;SDS011;70974;45.808;15.808;2023-06-26T01:19:46;14.13;;;10.82;;
81529;SDS011;70974;45.808;15.808;2023-06-26T01:25:03;14.85;;;10.77;;
81529;SDS011;70974;45.808;15.808;2023-06-26T01:27:33;16.27;;;11.07;;
81529;SDS011;70974;45.808;15.808;2023-06-26T01:30:00;15.20;;;11.10;;
81529;SDS011;70974;45.808;15.808;2023-06-26T01:32:28;14.55;;;10.18;;
81529;SDS011;70974;45.808;15.808;2023-06-26T01:34:55;15.57;;;11.40;;
81529;SDS011;70974;45.808;15.808;2023-06-26T01:37:21;14.57;;;11.68;;
81529;SDS011;70974;45.808;15.808;2023-06-26T01:39:47;14.25;;;10.65;;
81529;SDS011;70974;45.808;15.808;2023-06-26T01:42:13;19.50;;;11.60;;
81529;SDS011;70974;45.808;15.808;2023-06-26T01:44:42;15.48;;;10.95;;
81529;SDS011;70974;45.808;15.808;2023-06-26T01:47:09;14.43;;;10.82;;
81529;SDS011;70974;45.808;15.808;2023-06-26T01:49:46;14.65;;;11.20;;
81529;SDS011;70974;45.808;15.808;2023-06-26T01:54:42;14.95;;;11.23;;
81529;SDS011;70974;45.808;15.808;2023-06-26T01:57:09;16.17;;;11.43;;
81529;SDS011;70974;45.808;15.808;2023-06-26T01:59:35;14.95;;;10.05;;
81529;SDS011;70974;45.808;15.808;2023-06-26T02:02:02;13.85;;;10.38;;
81529;SDS011;70974;45.808;15.808;2023-06-26T02:04:32;16.35;;;11.57;;
81529;SDS011;70974;45.808;15.808;2023-06-26T02:06:58;14.27;;;10.60;;
81529;SDS011;70974;45.808;15.808;2023-06-26T02:09:24;13.45;;;10.82;;
81529;SDS011;70974;45.808;15.808;2023-06-26T02:11:50;13.57;;;10.13;;
81529;SDS011;70974;45.808;15.808;2023-06-26T02:14:16;15.48;;;10.13;;
81529;SDS011;70974;45.808;15.808;2023-06-26T02:16:42;13.88;;;9.32;;
81529;SDS011;70974;45.808;15.808;2023-06-26T02:19:08;13.70;;;10.27;;
81529;SDS011;70974;45.808;15.808;2023-06-26T02:21:34;15.85;;;10.82;;
81529;SDS011;70974;45.808;15.808;2023-06-26T02:24:01;17.13;;;10.32;;
81529;SDS011;70974;45.808;15.808;2023-06-26T02:26:27;13.90;;;10.05;;
81529;SDS011;70974;45.808;15.808;2023-06-26T02:28:53;14.75;;;9.65;;
81529;SDS011;70974;45.808;15.808;2023-06-26T02:31:19;14.25;;;10.50;;
81529;SDS011;70974;45.808;15.808;2023-06-26T02:33:45;12.82;;;9.73;;
81529;SDS011;70974;45.808;15.808;2023-06-26T02:36:11;13.02;;;9.50;;
81529;SDS011;70974;45.808;15.808;2023-06-26T02:38:37;14.77;;;9.30;;
81529;SDS011;70974;45.808;15.808;2023-06-26T02:41:03;13.40;;;9.88;;
81529;SDS011;70974;45.808;15.808;2023-06-26T02:43:29;15.82;;;10.20;;
81529;SDS011;70974;45.808;15.808;2023-06-26T02:45:55;14.10;;;9.60;;
81529;SDS011;70974;45.808;15.808;2023-06-26T02:48:21;13.90;;;10.15;;
81529;SDS011;70974;45.808;15.808;2023-06-26T02:50:47;12.57;;;9.27;;
81529;SDS011;70974;45.808;15.808;2023-06-26T02:53:13;12.27;;;9.60;;
81529;SDS011;70974;45.808;15.808;2023-06-26T02:55:41;16.48;;;10.23;;
81529;SDS011;70974;45.808;15.808;2023-06-26T02:58:07;12.90;;;10.02;;
81529;SDS011;70974;45.808;15.808;2023-06-26T03:00:33;21.65;;;10.45;;
81529;SDS011;70974;45.808;15.808;2023-06-26T03:02:59;14.75;;;10.23;;
81529;SDS011;70974;45.808;15.808;2023-06-26T03:05:25;14.45;;;10.88;;
81529;SDS011;70974;45.808;15.808;2023-06-26T03:07:51;15.68;;;10.68;;
81529;SDS011;70974;45.808;15.808;2023-06-26T03:10:17;15.38;;;10.43;;
81529;SDS011;70974;45.808;15.808;2023-06-26T03:12:43;14.95;;;10.45;;
81529;SDS011;70974;45.808;15.808;2023-06-26T03:15:09;15.30;;;9.93;;
81529;SDS011;70974;45.808;15.808;2023-06-26T03:17:36;13.43;;;10.55;;
81529;SDS011;70974;45.808;15.808;2023-06-26T03:20:02;14.20;;;10.02;;
81529;SDS011;70974;45.808;15.808;2023-06-26T03:22:32;14.80;;;10.35;;
81529;SDS011;70974;45.808;15.808;2023-06-26T03:24:58;13.20;;;10.02;;
81529;SDS011;70974;45.808;15.808;2023-06-26T03:27:24;14.70;;;10.52;;
81529;SDS011;70974;45.808;15.808;2023-06-26T03:29:51;12.45;;;10.00;;
81529;SDS011;70974;45.808;15.808;2023-06-26T03:32:17;14.90;;;9.05;;
81529;SDS011;70974;45.808;15.808;2023-06-26T03:34:44;16.58;;;10.32;;
81529;SDS011;70974;45.808;15.808;2023-06-26T03:37:10;12.30;;;9.35;;
81529;SDS011;70974;45.808;15.808;2023-06-26T03:39:36;15.68;;;10.73;;
81529;SDS011;70974;45.808;15.808;2023-06-26T03:42:02;15.30;;;10.23;;
81529;SDS011;70974;45.808;15.808;2023-06-26T03:44:28;17.23;;;9.98;;
81529;SDS011;70974;45.808;15.808;2023-06-26T03:46:54;13.05;;;10.40;;
81529;SDS011;70974;45.808;15.808;2023-06-26T03:49:20;13.65;;;9.73;;
81529;SDS011;70974;45.808;15.808;2023-06-26T03:51:46;17.15;;;10.27;;
81529;SDS011;70974;45.808;15.808;2023-06-26T03:54:12;14.00;;;10.48;;
81529;SDS011;70974;45.808;15.808;2023-06-26T03:56:38;12.73;;;10.13;;
81529;SDS011;70974;45.808;15.808;2023-06-26T03:59:04;14.77;;;10.75;;
81529;SDS011;70974;45.808;15.808;2023-06-26T04:01:30;15.95;;;10.27;;
81529;SDS011;70974;45.808;15.808;2023-06-26T04:03:56;12.88;;;10.10;;
81529;SDS011;70974;45.808;15.808;2023-06-26T04:06:22;15.15;;;10.40;;
81529;SDS011;70974;45.808;15.808;2023-06-26T04:08:48;16.20;;;11.13;;
81529;SDS011;70974;45.808;15.808;2023-06-26T04:11:14;14.15;;;9.27;;
81529;SDS011;70974;45.808;15.808;2023-06-26T04:13:40;13.10;;;9.52;;
81529;SDS011;70974;45.808;15.808;2023-06-26T04:16:06;12.23;;;9.23;;
81529;SDS011;70974;45.808;15.808;2023-06-26T04:18:32;12.65;;;9.95;;
81529;SDS011;70974;45.808;15.808;2023-06-26T04:21:06;15.82;;;9.88;;
81529;SDS011;70974;45.808;15.808;2023-06-26T04:23:33;11.57;;;9.25;;
81529;SDS011;70974;45.808;15.808;2023-06-26T04:25:59;12.82;;;9.55;;
81529;SDS011;70974;45.808;15.808;2023-06-26T04:28:25;13.07;;;9.27;;
81529;SDS011;70974;45.808;15.808;2023-06-26T04:30:51;12.05;;;9.00;;
81529;SDS011;70974;45.808;15.808;2023-06-26T04:33:18;13.65;;;8.98;;
81529;SDS011;70974;45.808;15.808;2023-06-26T04:35:44;11.25;;;8.85;;
81529;SDS011;70974;45.808;15.808;2023-06-26T04:38:13;11.60;;;8.05;;
81529;SDS011;70974;45.808;15.808;2023-06-26T04:40:40;12.60;;;8.00;;
81529;SDS011;70974;45.808;15.808;2023-06-26T04:43:06;10.75;;;8.60;;
81529;SDS011;70974;45.808;15.808;2023-06-26T04:45:32;11.45;;;8.73;;
81529;SDS011;70974;45.808;15.808;2023-06-26T04:47:58;10.68;;;8.00;;
81529;SDS011;70974;45.808;15.808;2023-06-26T04:50:25;10.68;;;8.05;;
81529;SDS011;70974;45.808;15.808;2023-06-26T04:55:19;10.15;;;7.78;;
81529;SDS011;70974;45.808;15.808;2023-06-26T04:57:46;11.65;;;8.20;;
81529;SDS011;70974;45.808;15.808;2023-06-26T05:00:13;10.30;;;8.05;;
81529;SDS011;70974;45.808;15.808;2023-06-26T05:02:40;12.43;;;8.23;;
81529;SDS011;70974;45.808;15.808;2023-06-26T05:05:06;12.35;;;7.97;;
81529;SDS011;70974;45.808;15.808;2023-06-26T05:07:32;11.32;;;7.50;;
81529;SDS011;70974;45.808;15.808;2023-06-26T05:09:58;11.80;;;8.27;;
81529;SDS011;70974;45.808;15.808;2023-06-26T05:12:24;9.95;;;7.38;;
81529;SDS011;70974;45.808;15.808;2023-06-26T05:14:50;9.98;;;8.10;;
81529;SDS011;70974;45.808;15.808;2023-06-26T05:17:16;10.77;;;7.80;;
81529;SDS011;70974;45.808;15.808;2023-06-26T05:19:42;9.77;;;6.82;;
81529;SDS011;70974;45.808;15.808;2023-06-26T05:22:08;12.20;;;7.63;;
81529;SDS011;70974;45.808;15.808;2023-06-26T05:24:35;9.75;;;7.95;;
81529;SDS011;70974;45.808;15.808;2023-06-26T05:27:01;10.48;;;7.80;;
81529;SDS011;70974;45.808;15.808;2023-06-26T05:29:27;12.20;;;7.95;;
81529;SDS011;70974;45.808;15.808;2023-06-26T05:31:54;12.50;;;8.20;;
81529;SDS011;70974;45.808;15.808;2023-06-26T05:34:22;10.43;;;7.72;;
81529;SDS011;70974;45.808;15.808;2023-06-26T05:36:52;9.75;;;8.18;;
81529;SDS011;70974;45.808;15.808;2023-06-26T05:39:21;10.32;;;7.60;;
81529;SDS011;70974;45.808;15.808;2023-06-26T05:41:47;9.77;;;8.20;;
81529;SDS011;70974;45.808;15.808;2023-06-26T05:44:13;16.67;;;8.60;;
81529;SDS011;70974;45.808;15.808;2023-06-26T05:46:39;9.18;;;7.68;;
81529;SDS011;70974;45.808;15.808;2023-06-26T05:49:05;9.70;;;8.13;;
81529;SDS011;70974;45.808;15.808;2023-06-26T05:51:32;11.82;;;8.50;;
81529;SDS011;70974;45.808;15.808;2023-06-26T05:53:58;9.55;;;7.70;;
81529;SDS011;70974;45.808;15.808;2023-06-26T05:56:24;11.30;;;8.13;;
81529;SDS011;70974;45.808;15.808;2023-06-26T05:58:51;10.52;;;7.63;;
81529;SDS011;70974;45.808;15.808;2023-06-26T06:01:17;10.90;;;8.13;;
81529;SDS011;70974;45.808;15.808;2023-06-26T06:03:44;11.07;;;8.18;;
81529;SDS011;70974;45.808;15.808;2023-06-26T06:06:11;9.55;;;7.97;;
81529;SDS011;70974;45.808;15.808;2023-06-26T06:08:37;11.20;;;8.13;;
81529;SDS011;70974;45.808;15.808;2023-06-26T06:11:03;10.45;;;8.10;;
81529;SDS011;70974;45.808;15.808;2023-06-26T06:13:30;9.73;;;8.13;;
81529;SDS011;70974;45.808;15.808;2023-06-26T06:15:56;10.75;;;8.20;;
81529;SDS011;70974;45.808;15.808;2023-06-26T06:18:22;12.50;;;8.23;;
81529;SDS011;70974;45.808;15.808;2023-06-26T06:20:48;8.57;;;7.68;;
81529;SDS011;70974;45.808;15.808;2023-06-26T06:23:14;11.38;;;8.43;;
81529;SDS011;70974;45.808;15.808;2023-06-26T06:25:41;9.55;;;7.85;;
81529;SDS011;70974;45.808;15.808;2023-06-26T06:28:07;10.57;;;7.68;;
81529;SDS011;70974;45.808;15.808;2023-06-26T06:30:33;11.38;;;7.60;;
81529;SDS011;70974;45.808;15.808;2023-06-26T06:32:59;9.23;;;7.53;;
81529;SDS011;70974;45.808;15.808;2023-06-26T06:35:25;9.63;;;7.72;;
81529;SDS011;70974;45.808;15.808;2023-06-26T06:37:51;9.98;;;8.63;;
81529;SDS011;70974;45.808;15.808;2023-06-26T06:40:17;10.48;;;7.32;;
81529;SDS011;70974;45.808;15.808;2023-06-26T06:42:43;10.35;;;7.53;;
81529;SDS011;70974;45.808;15.808;2023-06-26T06:45:09;8.45;;;7.53;;
81529;SDS011;70974;45.808;15.808;2023-06-26T06:47:35;8.85;;;7.53;;
81529;SDS011;70974;45.808;15.808;2023-06-26T06:50:02;10.65;;;7.97;;
81529;SDS011;70974;45.808;15.808;2023-06-26T06:52:33;11.40;;;7.97;;
81529;SDS011;70974;45.808;15.808;2023-06-26T06:55:00;11.82;;;7.75;;
81529;SDS011;70974;45.808;15.808;2023-06-26T06:57:31;9.77;;;7.85;;
81529;SDS011;70974;45.808;15.808;2023-06-26T07:00:00;9.88;;;6.75;;
81529;SDS011;70974;45.808;15.808;2023-06-26T07:02:27;8.90;;;7.78;;
81529;SDS011;70974;45.808;15.808;2023-06-26T07:04:53;10.68;;;7.97;;
81529;SDS011;70974;45.808;15.808;2023-06-26T07:07:19;8.50;;;7.57;;
81529;SDS011;70974;45.808;15.808;2023-06-26T07:09:45;9.30;;;7.65;;
81529;SDS011;70974;45.808;15.808;2023-06-26T07:12:11;10.73;;;8.23;;
81529;SDS011;70974;45.808;15.808;2023-06-26T07:14:37;12.13;;;8.00;;
81529;SDS011;70974;45.808;15.808;2023-06-26T07:17:03;9.50;;;8.23;;
81529;SDS011;70974;45.808;15.808;2023-06-26T07:19:29;8.88;;;7.78;;
81529;SDS011;70974;45.808;15.808;2023-06-26T07:21:55;9.55;;;7.13;;
81529;SDS011;70974;45.808;15.808;2023-06-26T07:24:21;10.45;;;7.47;;
81529;SDS011;70974;45.808;15.808;2023-06-26T07:26:47;10.13;;;7.95;;
81529;SDS011;70974;45.808;15.808;2023-06-26T07:29:13;11.80;;;8.05;;
81529;SDS011;70974;45.808;15.808;2023-06-26T07:31:39;9.43;;;7.93;;
81529;SDS011;70974;45.808;15.808;2023-06-26T07:34:05;8.95;;;8.05;;
81529;SDS011;70974;45.808;15.808;2023-06-26T07:36:31;10.00;;;7.82;;
81529;SDS011;70974;45.808;15.808;2023-06-26T07:38:57;15.02;;;8.35;;
81529;SDS011;70974;45.808;15.808;2023-06-26T07:41:23;9.73;;;8.70;;
81529;SDS011;70974;45.808;15.808;2023-06-26T07:43:49;14.63;;;8.13;;
81529;SDS011;70974;45.808;15.808;2023-06-26T07:46:15;11.80;;;8.25;;
81529;SDS011;70974;45.808;15.808;2023-06-26T07:48:41;9.68;;;8.10;;
81529;SDS011;70974;45.808;15.808;2023-06-26T07:51:07;10.30;;;8.35;;
81529;SDS011;70974;45.808;15.808;2023-06-26T07:53:33;10.93;;;8.10;;
81529;SDS011;70974;45.808;15.808;2023-06-26T07:55:59;9.90;;;7.80;;
81529;SDS011;70974;45.808;15.808;2023-06-26T07:58:25;9.95;;;8.52;;
81529;SDS011;70974;45.808;15.808;2023-06-26T08:00:51;9.65;;;7.97;;
81529;SDS011;70974;45.808;15.808;2023-06-26T08:03:17;11.57;;;8.57;;
81529;SDS011;70974;45.808;15.808;2023-06-26T08:05:43;9.93;;;8.23;;
81529;SDS011;70974;45.808;15.808;2023-06-26T08:08:09;9.55;;;7.70;;
81529;SDS011;70974;45.808;15.808;2023-06-26T08:10:35;9.43;;;8.43;;
81529;SDS011;70974;45.808;15.808;2023-06-26T08:13:02;11.02;;;8.55;;
81529;SDS011;70974;45.808;15.808;2023-06-26T08:15:28;9.50;;;7.97;;
81529;SDS011;70974;45.808;15.808;2023-06-26T08:17:54;9.65;;;7.72;;
81529;SDS011;70974;45.808;15.808;2023-06-26T08:20:20;9.90;;;7.82;;
81529;SDS011;70974;45.808;15.808;2023-06-26T08:22:47;11.20;;;7.75;;
81529;SDS011;70974;45.808;15.808;2023-06-26T08:25:15;9.50;;;7.40;;
81529;SDS011;70974;45.808;15.808;2023-06-26T08:27:41;9.98;;;7.70;;
81529;SDS011;70974;45.808;15.808;2023-06-26T08:30:08;9.10;;;7.82;;
81529;SDS011;70974;45.808;15.808;2023-06-26T08:32:34;9.52;;;7.50;;
81529;SDS011;70974;45.808;15.808;2023-06-26T08:35:00;9.23;;;7.85;;
81529;SDS011;70974;45.808;15.808;2023-06-26T08:37:26;9.27;;;8.20;;
81529;SDS011;70974;45.808;15.808;2023-06-26T08:39:52;9.43;;;7.43;;
81529;SDS011;70974;45.808;15.808;2023-06-26T08:42:18;7.82;;;6.95;;
81529;SDS011;70974;45.808;15.808;2023-06-26T08:44:44;9.20;;;8.13;;
81529;SDS011;70974;45.808;15.808;2023-06-26T08:47:11;7.82;;;7.03;;
81529;SDS011;70974;45.808;15.808;2023-06-26T08:49:46;8.55;;;7.43;;
81529;SDS011;70974;45.808;15.808;2023-06-26T08:52:17;9.63;;;7.43;;
81529;SDS011;70974;45.808;15.808;2023-06-26T08:54:45;8.30;;;7.18;;
81529;SDS011;70974;45.808;15.808;2023-06-26T08:57:12;8.98;;;7.22;;
81529;SDS011;70974;45.808;15.808;2023-06-26T08:59:40;7.80;;;6.75;;
81529;SDS011;70974;45.808;15.808;2023-06-26T09:02:06;8.43;;;6.50;;
81529;SDS011;70974;45.808;15.808;2023-06-26T09:04:32;9.13;;;7.32;;
81529;SDS011;70974;45.808;15.808;2023-06-26T09:06:59;11.23;;;7.38;;
81529;SDS011;70974;45.808;15.808;2023-06-26T09:09:25;8.48;;;7.30;;
81529;SDS011;70974;45.808;15.808;2023-06-26T09:11:51;8.82;;;7.47;;
81529;SDS011;70974;45.808;15.808;2023-06-26T09:14:17;8.13;;;6.90;;
81529;SDS011;70974;45.808;15.808;2023-06-26T09:16:45;7.00;;;6.30;;
81529;SDS011;70974;45.808;15.808;2023-06-26T09:21:41;7.13;;;6.05;;
81529;SDS011;70974;45.808;15.808;2023-06-26T09:24:07;7.63;;;5.97;;
81529;SDS011;70974;45.808;15.808;2023-06-26T09:26:37;6.63;;;6.00;;
81529;SDS011;70974;45.808;15.808;2023-06-26T09:29:04;6.30;;;5.70;;
81529;SDS011;70974;45.808;15.808;2023-06-26T09:31:30;6.57;;;5.50;;
81529;SDS011;70974;45.808;15.808;2023-06-26T09:33:59;7.20;;;5.35;;
81529;SDS011;70974;45.808;15.808;2023-06-26T09:36:27;6.78;;;5.70;;
81529;SDS011;70974;45.808;15.808;2023-06-26T09:38:53;9.13;;;5.93;;
81529;SDS011;70974;45.808;15.808;2023-06-26T09:41:20;6.50;;;5.80;;
81529;SDS011;70974;45.808;15.808;2023-06-26T09:43:46;6.75;;;5.72;;
81529;SDS011;70974;45.808;15.808;2023-06-26T09:46:16;9.20;;;6.18;;
81529;SDS011;70974;45.808;15.808;2023-06-26T09:48:43;6.65;;;5.95;;
81529;SDS011;70974;45.808;15.808;2023-06-26T09:51:09;7.50;;;5.68;;
81529;SDS011;70974;45.808;15.808;2023-06-26T09:53:35;6.22;;;5.57;;
81529;SDS011;70974;45.808;15.808;2023-06-26T09:56:14;6.53;;;5.93;;
81529;SDS011;70974;45.808;15.808;2023-06-26T09:58:44;7.43;;;5.72;;
81529;SDS011;70974;45.808;15.808;2023-06-26T10:01:10;7.05;;;6.35;;
81529;SDS011;70974;45.808;15.808;2023-06-26T10:03:36;7.82;;;5.82;;
81529;SDS011;70974;45.808;15.808;2023-06-26T10:06:02;7.50;;;6.65;;
81529;SDS011;70974;45.808;15.808;2023-06-26T10:08:28;8.05;;;6.72;;
81529;SDS011;70974;45.808;15.808;2023-06-26T10:10:55;8.02;;;6.80;;
81529;SDS011;70974;45.808;15.808;2023-06-26T10:13:25;7.15;;;6.45;;
81529;SDS011;70974;45.808;15.808;2023-06-26T10:15:52;7.60;;;6.22;;
81529;SDS011;70974;45.808;15.808;2023-06-26T10:18:20;8.93;;;6.68;;
81529;SDS011;70974;45.808;15.808;2023-06-26T10:20:47;7.60;;;6.80;;
81529;SDS011;70974;45.808;15.808;2023-06-26T10:23:14;8.05;;;6.93;;
81529;SDS011;70974;45.808;15.808;2023-06-26T10:25:40;8.13;;;7.10;;
81529;SDS011;70974;45.808;15.808;2023-06-26T10:28:08;7.50;;;6.75;;
81529;SDS011;70974;45.808;15.808;2023-06-26T10:30:35;9.05;;;7.18;;
81529;SDS011;70974;45.808;15.808;2023-06-26T10:33:02;7.22;;;6.45;;
81529;SDS011;70974;45.808;15.808;2023-06-26T10:35:29;7.50;;;6.70;;
81529;SDS011;70974;45.808;15.808;2023-06-26T10:38:00;7.90;;;6.97;;
81529;SDS011;70974;45.808;15.808;2023-06-26T10:40:28;7.82;;;6.95;;
81529;SDS011;70974;45.808;15.808;2023-06-26T10:43:07;8.15;;;7.35;;
81529;SDS011;70974;45.808;15.808;2023-06-26T10:45:33;8.63;;;7.07;;
81529;SDS011;70974;45.808;15.808;2023-06-26T10:48:00;7.13;;;6.43;;
81529;SDS011;70974;45.808;15.808;2023-06-26T10:50:33;7.38;;;6.68;;
81529;SDS011;70974;45.808;15.808;2023-06-26T10:55:34;7.78;;;6.97;;
81529;SDS011;70974;45.808;15.808;2023-06-26T10:58:01;8.27;;;6.82;;
81529;SDS011;70974;45.808;15.808;2023-06-26T11:00:27;7.65;;;6.78;;
81529;SDS011;70974;45.808;15.808;2023-06-26T11:02:54;7.70;;;6.90;;
81529;SDS011;70974;45.808;15.808;2023-06-26T11:05:29;7.88;;;7.07;;
81529;SDS011;70974;45.808;15.808;2023-06-26T11:08:07;8.18;;;6.97;;
81529;SDS011;70974;45.808;15.808;2023-06-26T11:10:48;10.07;;;7.38;;
81529;SDS011;70974;45.808;15.808;2023-06-26T11:13:15;8.30;;;7.50;;
81529;SDS011;70974;45.808;15.808;2023-06-26T11:15:42;8.93;;;6.78;;
81529;SDS011;70974;45.808;15.808;2023-06-26T11:18:09;9.13;;;7.28;;
81529;SDS011;70974;45.808;15.808;2023-06-26T11:20:35;7.68;;;6.93;;
81529;SDS011;70974;45.808;15.808;2023-06-26T11:23:01;8.13;;;7.32;;
81529;SDS011;70974;45.808;15.808;2023-06-26T11:25:33;7.80;;;6.90;;
81529;SDS011;70974;45.808;15.808;2023-06-26T11:28:00;8.50;;;6.97;;
81529;SDS011;70974;45.808;15.808;2023-06-26T11:30:26;9.60;;;7.78;;
81529;SDS011;70974;45.808;15.808;2023-06-26T11:32:52;8.90;;;7.47;;
81529;SDS011;70974;45.808;15.808;2023-06-26T11:35:22;10.00;;;7.13;;
81529;SDS011;70974;45.808;15.808;2023-06-26T11:37:55;10.40;;;7.20;;
81529;SDS011;70974;45.808;15.808;2023-06-26T11:40:22;8.75;;;7.25;;
81529;SDS011;70974;45.808;15.808;2023-06-26T11:42:52;7.97;;;7.18;;
81529;SDS011;70974;45.808;15.808;2023-06-26T11:45:19;9.88;;;7.55;;
81529;SDS011;70974;45.808;15.808;2023-06-26T11:47:45;7.65;;;6.90;;
81529;SDS011;70974;45.808;15.808;2023-06-26T11:50:17;8.25;;;7.38;;
81529;SDS011;70974;45.808;15.808;2023-06-26T11:52:43;8.45;;;7.55;;
81529;SDS011;70974;45.808;15.808;2023-06-26T11:55:10;10.88;;;7.05;;
81529;SDS011;70974;45.808;15.808;2023-06-26T11:57:36;7.57;;;6.80;;
81529;SDS011;70974;45.808;15.808;2023-06-26T12:00:15;8.55;;;7.18;;
81529;SDS011;70974;45.808;15.808;2023-06-26T12:02:42;8.02;;;6.70;;
81529;SDS011;70974;45.808;15.808;2023-06-26T12:05:08;8.82;;;7.03;;
81529;SDS011;70974;45.808;15.808;2023-06-26T12:07:34;10.32;;;6.95;;
81529;SDS011;70974;45.808;15.808;2023-06-26T12:10:02;8.00;;;7.03;;
81529;SDS011;70974;45.808;15.808;2023-06-26T12:12:28;10.18;;;7.07;;
81529;SDS011;70974;45.808;15.808;2023-06-26T12:14:54;8.35;;;7.13;;
81529;SDS011;70974;45.808;15.808;2023-06-26T12:17:22;7.72;;;6.93;;
81529;SDS011;70974;45.808;15.808;2023-06-26T12:19:50;10.25;;;6.88;;
81529;SDS011;70974;45.808;15.808;2023-06-26T12:22:19;9.48;;;6.95;;
81529;SDS011;70974;45.808;15.808;2023-06-26T12:24:45;8.52;;;7.03;;
81529;SDS011;70974;45.808;15.808;2023-06-26T12:27:13;9.02;;;7.68;;
81529;SDS011;70974;45.808;15.808;2023-06-26T12:29:40;8.50;;;6.88;;
81529;SDS011;70974;45.808;15.808;2023-06-26T12:32:10;10.05;;;7.60;;
81529;SDS011;70974;45.808;15.808;2023-06-26T12:34:37;8.45;;;7.55;;
81529;SDS011;70974;45.808;15.808;2023-06-26T12:39:49;8.32;;;7.20;;
81529;SDS011;70974;45.808;15.808;2023-06-26T12:42:19;10.65;;;7.22;;
81529;SDS011;70974;45.808;15.808;2023-06-26T12:44:46;7.82;;;6.40;;
81529;SDS011;70974;45.808;15.808;2023-06-26T12:47:13;8.90;;;6.90;;
81529;SDS011;70974;45.808;15.808;2023-06-26T12:49:40;9.07;;;6.78;;
81529;SDS011;70974;45.808;15.808;2023-06-26T12:52:08;9.30;;;6.80;;
81529;SDS011;70974;45.808;15.808;2023-06-26T12:54:35;9.15;;;7.32;;
81529;SDS011;70974;45.808;15.808;2023-06-26T12:57:02;8.43;;;7.55;;
81529;SDS011;70974;45.808;15.808;2023-06-26T12:59:31;9.18;;;7.68;;
81529;SDS011;70974;45.808;15.808;2023-06-26T13:01:57;11.82;;;6.72;;
81529;SDS011;70974;45.808;15.808;2023-06-26T13:04:23;9.05;;;7.38;;
81529;SDS011;70974;45.808;15.808;2023-06-26T13:06:50;10.23;;;6.43;;
81529;SDS011;70974;45.808;15.808;2023-06-26T13:09:17;7.90;;;6.90;;
81529;SDS011;70974;45.808;15.808;2023-06-26T13:11:43;7.07;;;6.38;;
81529;SDS011;70974;45.808;15.808;2023-06-26T13:14:09;7.53;;;6.68;;
81529;SDS011;70974;45.808;15.808;2023-06-26T13:16:36;7.40;;;6.20;;
81529;SDS011;70974;45.808;15.808;2023-06-26T13:19:02;7.20;;;6.15;;
81529;SDS011;70974;45.808;15.808;2023-06-26T13:21:28;7.68;;;6.65;;
81529;SDS011;70974;45.808;15.808;2023-06-26T13:23:55;7.53;;;6.63;;
81529;SDS011;70974;45.808;15.808;2023-06-26T13:26:21;7.68;;;6.65;;
81529;SDS011;70974;45.808;15.808;2023-06-26T13:28:47;8.70;;;6.75;;
81529;SDS011;70974;45.808;15.808;2023-06-26T13:31:14;10.15;;;6.63;;
81529;SDS011;70974;45.808;15.808;2023-06-26T13:33:40;10.77;;;6.95;;
81529;SDS011;70974;45.808;15.808;2023-06-26T13:36:06;11.30;;;7.53;;
81529;SDS011;70974;45.808;15.808;2023-06-26T13:38:35;9.98;;;6.85;;
81529;SDS011;70974;45.808;15.808;2023-06-26T13:41:01;9.55;;;7.45;;
81529;SDS011;70974;45.808;15.808;2023-06-26T13:43:28;8.38;;;6.95;;
81529;SDS011;70974;45.808;15.808;2023-06-26T13:45:54;8.95;;;6.78;;
81529;SDS011;70974;45.808;15.808;2023-06-26T13:48:20;8.45;;;6.68;;
81529;SDS011;70974;45.808;15.808;2023-06-26T13:50:46;8.32;;;6.68;;
81529;SDS011;70974;45.808;15.808;2023-06-26T13:53:13;8.30;;;6.95;;
81529;SDS011;70974;45.808;15.808;2023-06-26T13:55:40;10.93;;;6.70;;
81529;SDS011;70974;45.808;15.808;2023-06-26T13:58:06;7.43;;;6.50;;
81529;SDS011;70974;45.808;15.808;2023-06-26T14:00:33;7.00;;;5.68;;
81529;SDS011;70974;45.808;15.808;2023-06-26T14:02:59;7.57;;;6.78;;
81529;SDS011;70974;45.808;15.808;2023-06-26T14:05:26;9.52;;;6.45;;
81529;SDS011;70974;45.808;15.808;2023-06-26T14:07:52;7.47;;;5.75;;
81529;SDS011;70974;45.808;15.808;2023-06-26T14:10:19;7.78;;;6.60;;
81529;SDS011;70974;45.808;15.808;2023-06-26T14:12:45;7.10;;;6.32;;
81529;SDS011;70974;45.808;15.808;2023-06-26T14:15:11;7.50;;;6.32;;
81529;SDS011;70974;45.808;15.808;2023-06-26T14:17:37;9.00;;;6.57;;
81529;SDS011;70974;45.808;15.808;2023-06-26T14:20:07;7.97;;;6.60;;
81529;SDS011;70974;45.808;15.808;2023-06-26T14:22:41;7.97;;;6.55;;
81529;SDS011;70974;45.808;15.808;2023-06-26T14:25:07;6.88;;;6.15;;
81529;SDS011;70974;45.808;15.808;2023-06-26T14:27:34;8.57;;;6.68;;
81529;SDS011;70974;45.808;15.808;2023-06-26T14:30:00;7.38;;;6.35;;
81529;SDS011;70974;45.808;15.808;2023-06-26T14:32:26;8.10;;;6.47;;
81529;SDS011;70974;45.808;15.808;2023-06-26T14:34:52;7.85;;;6.10;;
81529;SDS011;70974;45.808;15.808;2023-06-26T14:37:18;9.60;;;6.53;;
81529;SDS011;70974;45.808;15.808;2023-06-26T14:39:44;8.27;;;6.57;;